Time;durP1;ratioP1;P1;durP2;ratioP2;P2;SDS_P1;SDS_P2;PMS_P1;PMS_P2;Temp;Humidity;BMP_temperature;BMP_pressure;BME280_temperature;BME280_humidity;BME280_pressure;Samples;Min_cycle;Max_cycle;Signal;HPM_P1;HPM_P2
2023/07/14 00:00:13;;;;;;;32.63;5.90;;;28.00;48.00;;;;;;5029143;28;20193;-67
2023/07/14 00:02:41;;;;;;;28.53;5.80;;;27.90;47.90;;;;;;5045366;28;20223;-69
2023/07/14 00:05:14;;;;;;;26.30;5.57;;;27.90;47.90;;;;;;5048659;28;20203;-72
2023/07/14 00:07:42;;;;;;;31.80;6.37;;;27.90;48.60;;;;;;5028642;28;20215;-69
2023/07/14 00:10:16;;;;;;;26.07;5.30;;;27.90;47.90;;;;;;5029171;28;20204;-67
2023/07/14 00:12:43;;;;;;;31.20;6.37;;;27.90;47.90;;;;;;5044680;28;20200;-69
2023/07/14 00:15:11;;;;;;;29.80;5.93;;;27.90;47.90;;;;;;5048335;28;20562;-67
2023/07/14 00:17:38;;;;;;;30.70;6.00;;;27.90;48.50;;;;;;5048717;28;20204;-70
2023/07/14 00:20:17;;;;;;;26.43;5.40;;;27.90;47.90;;;;;;5042617;28;20196;-69
2023/07/14 00:22:45;;;;;;;27.33;5.37;;;27.90;47.90;;;;;;5035780;28;20271;-67
2023/07/14 00:25:13;;;;;;;23.10;5.17;;;27.90;47.90;;;;;;5028096;28;20201;-70
2023/07/14 00:27:40;;;;;;;58.80;8.23;;;27.90;47.90;;;;;;5027784;28;20208;-69
2023/07/14 00:30:15;;;;;;;33.73;6.27;;;27.90;47.90;;;;;;5028041;28;20236;-68
2023/07/14 00:32:42;;;;;;;22.13;5.13;;;27.90;47.90;;;;;;5053357;28;20195;-67
2023/07/14 00:35:29;;;;;;;39.53;6.83;;;27.80;47.90;;;;;;5029678;28;20708;-66
2023/07/14 00:37:58;;;;;;;29.37;5.73;;;27.80;47.80;;;;;;5027949;28;20375;-67
2023/07/14 00:40:29;;;;;;;21.80;5.20;;;27.80;47.80;;;;;;5028267;28;20212;-67
2023/07/14 00:42:58;;;;;;;33.57;6.27;;;27.80;47.80;;;;;;5029181;28;20231;-67
2023/07/14 00:45:28;;;;;;;24.17;5.47;;;27.80;47.90;;;;;;5028337;28;20193;-67
2023/07/14 00:48:03;;;;;;;35.03;6.17;;;27.80;47.80;;;;;;5035894;28;20204;-66
2023/07/14 00:50:34;;;;;;;36.53;6.60;;;27.80;47.80;;;;;;5067936;28;20212;-73
2023/07/14 00:53:05;;;;;;;31.87;5.87;;;27.80;47.90;;;;;;5028173;28;20227;-67
2023/07/14 00:55:39;;;;;;;24.03;5.40;;;27.80;47.90;;;;;;5028497;28;20196;-74
2023/07/14 00:58:15;;;;;;;35.30;6.17;;;27.80;47.90;;;;;;5030651;28;20200;-76
2023/07/14 01:01:01;;;;;;;37.40;6.77;;;27.80;47.90;;;;;;5041252;28;20621;-66
2023/07/14 01:03:28;;;;;;;53.13;7.80;;;27.80;47.90;;;;;;5027504;28;20232;-67
2023/07/14 01:05:56;;;;;;;29.40;5.57;;;27.80;48.00;;;;;;5047479;28;20209;-69
2023/07/14 01:08:25;;;;;;;28.30;5.43;;;27.80;47.90;;;;;;5048798;28;20231;-68
2023/07/14 01:10:52;;;;;;;76.87;9.70;;;27.80;48.00;;;;;;5045654;28;20664;-69
2023/07/14 01:13:20;;;;;;;45.07;7.07;;;27.70;47.90;;;;;;5030643;28;20291;-71
2023/07/14 01:15:47;;;;;;;38.90;6.53;;;27.80;48.00;;;;;;5042035;28;20216;-70
2023/07/14 01:18:14;;;;;;;29.17;5.87;;;27.80;48.00;;;;;;5027433;28;20295;-68
2023/07/14 01:20:41;;;;;;;31.23;5.90;;;27.70;47.90;;;;;;5027902;28;20200;-68
2023/07/14 01:23:30;;;;;;;26.37;5.73;;;27.70;47.90;;;;;;5028250;28;20220;-69
2023/07/14 01:26:11;;;;;;;100.40;11.93;;;27.70;47.90;;;;;;5038249;28;20270;-73
2023/07/14 01:28:40;;;;;;;34.93;6.57;;;27.70;47.90;;;;;;5052956;28;20664;-73
2023/07/14 01:31:12;;;;;;;37.67;6.27;;;27.70;47.90;;;;;;5047476;28;20196;-70
2023/07/14 01:33:38;;;;;;;57.73;8.90;;;27.70;47.90;;;;;;5045216;28;20204;-75
2023/07/14 01:36:06;;;;;;;38.37;6.73;;;27.70;48.00;;;;;;5027440;28;20228;-67
2023/07/14 01:38:33;;;;;;;34.47;6.30;;;27.70;47.90;;;;;;5046491;28;20664;-75
2023/07/14 01:41:02;;;;;;;35.57;6.40;;;27.70;48.00;;;;;;5035794;28;20201;-75
2023/07/14 01:43:29;;;;;;;48.77;7.53;;;27.70;48.00;;;;;;5046000;28;20216;-77
2023/07/14 01:46:00;;;;;;;27.57;5.87;;;27.70;48.00;;;;;;5050278;28;20204;-71
2023/07/14 01:48:30;;;;;;;46.13;7.27;;;27.70;48.00;;;;;;5050068;28;20196;-67
2023/07/14 01:51:00;;;;;;;29.87;5.80;;;27.70;48.00;;;;;;5051263;28;20208;-67
2023/07/14 01:53:31;;;;;;;31.07;6.30;;;27.60;48.00;;;;;;5037887;28;20193;-68
2023/07/14 01:56:02;;;;;;;29.20;6.20;;;27.60;48.00;;;;;;5047289;28;20204;-68
2023/07/14 01:58:33;;;;;;;27.77;5.73;;;27.60;47.90;;;;;;5050511;28;20208;-68
2023/07/14 02:01:03;;;;;;;31.53;6.27;;;27.60;48.60;;;;;;5050544;28;20204;-68
2023/07/14 02:03:35;;;;;;;34.50;6.30;;;27.60;48.00;;;;;;5050976;28;20231;-68
2023/07/14 02:06:02;;;;;;;31.00;6.30;;;27.60;48.00;;;;;;5049887;28;20203;-66
2023/07/14 02:08:30;;;;;;;38.97;6.83;;;27.60;48.00;;;;;;5035893;28;20205;-67
2023/07/14 02:10:56;;;;;;;27.23;5.63;;;27.60;48.00;;;;;;5042841;28;20197;-65
2023/07/14 02:13:24;;;;;;;36.03;6.63;;;27.50;48.00;;;;;;5036501;28;20203;-67
2023/07/14 02:15:52;;;;;;;26.50;5.57;;;27.60;48.00;;;;;;5050836;28;20188;-67
2023/07/14 02:18:25;;;;;;;31.93;6.13;;;27.50;48.00;;;;;;5045808;28;20200;-67
2023/07/14 02:20:54;;;;;;;31.20;5.80;;;27.60;48.00;;;;;;5029945;28;20205;-67
2023/07/14 02:23:24;;;;;;;32.83;6.20;;;27.50;48.00;;;;;;5036730;28;20220;-67
2023/07/14 02:26:06;;;;;;;26.40;5.63;;;27.50;48.00;;;;;;5034754;28;20196;-67
2023/07/14 02:28:32;;;;;;;23.67;5.70;;;27.50;48.00;;;;;;5039795;28;20677;-69
2023/07/14 02:31:04;;;;;;;30.67;6.30;;;27.50;48.00;;;;;;5030596;28;20219;-69
2023/07/14 02:33:37;;;;;;;33.23;6.30;;;27.50;48.10;;;;;;5029846;28;20697;-72
2023/07/14 02:36:14;;;;;;;31.67;5.93;;;27.50;48.10;;;;;;5030750;28;20221;-67
2023/07/14 02:38:41;;;;;;;33.93;6.43;;;27.50;48.10;;;;;;5042065;28;20202;-67
2023/07/14 02:41:14;;;;;;;26.83;5.83;;;27.50;48.10;;;;;;5048636;28;20660;-69
2023/07/14 02:43:41;;;;;;;36.17;6.20;;;27.50;48.10;;;;;;5040726;28;20217;-67
2023/07/14 02:46:15;;;;;;;25.40;5.63;;;27.40;48.00;;;;;;5031285;28;20217;-67
2023/07/14 02:48:46;;;;;;;38.17;6.70;;;27.40;48.00;;;;;;5036732;28;20684;-67
2023/07/14 02:51:13;;;;;;;26.27;5.67;;;27.50;48.10;;;;;;5043885;28;20207;-67
2023/07/14 02:53:40;;;;;;;36.93;6.37;;;27.40;48.10;;;;;;5049121;28;20200;-67
2023/07/14 02:56:07;;;;;;;31.07;6.33;;;27.40;48.10;;;;;;5049197;28;20226;-67
2023/07/14 02:58:36;;;;;;;30.30;6.47;;;27.40;48.10;;;;;;5031044;28;20217;-66
2023/07/14 03:01:04;;;;;;;24.50;5.80;;;27.40;48.10;;;;;;5039620;28;20208;-67
2023/07/14 03:03:32;;;;;;;22.97;5.23;;;27.40;48.20;;;;;;5041651;28;20235;-67
2023/07/14 03:06:01;;;;;;;31.70;6.10;;;27.40;48.10;;;;;;5030532;28;20204;-75
2023/07/14 03:08:28;;;;;;;36.37;6.50;;;27.40;48.20;;;;;;5029806;28;20207;-74
2023/07/14 03:10:57;;;;;;;30.10;5.73;;;27.40;48.20;;;;;;5030125;28;20205;-75
2023/07/14 03:13:24;;;;;;;41.00;7.00;;;27.40;48.20;;;;;;5047451;28;20208;-69
2023/07/14 03:15:51;;;;;;;32.77;6.13;;;27.40;48.20;;;;;;5030926;28;20209;-71
2023/07/14 03:18:18;;;;;;;29.40;5.77;;;27.40;48.20;;;;;;5029322;28;20209;-67
2023/07/14 03:20:46;;;;;;;35.80;6.63;;;27.40;48.80;;;;;;5038805;28;20208;-67
2023/07/14 03:23:14;;;;;;;25.27;5.17;;;27.40;48.20;;;;;;5031359;28;20229;-68
2023/07/14 03:25:41;;;;;;;29.43;5.93;;;27.40;48.20;;;;;;5032442;28;20239;-67
2023/07/14 03:28:11;;;;;;;40.43;7.47;;;27.30;48.10;;;;;;5032635;28;20201;-67
2023/07/14 03:30:40;;;;;;;34.97;6.63;;;27.30;48.20;;;;;;5042430;28;20206;-68
2023/07/14 03:33:07;;;;;;;34.57;6.40;;;27.30;48.20;;;;;;5046472;28;20208;-67
2023/07/14 03:35:35;;;;;;;25.60;5.60;;;27.30;48.80;;;;;;5041403;28;20232;-66
2023/07/14 03:38:02;;;;;;;36.80;6.80;;;27.30;48.20;;;;;;5040406;28;20213;-67
2023/07/14 03:40:30;;;;;;;36.57;6.47;;;27.30;48.20;;;;;;5039974;28;20210;-67
2023/07/14 03:42:57;;;;;;;22.00;5.13;;;27.30;48.20;;;;;;5029772;28;20224;-67
2023/07/14 03:45:24;;;;;;;31.03;6.13;;;27.30;48.20;;;;;;5058409;28;20203;-68
2023/07/14 03:47:51;;;;;;;35.43;6.87;;;27.30;48.20;;;;;;5069119;28;20203;-67
2023/07/14 03:50:18;;;;;;;25.87;5.87;;;27.30;48.20;;;;;;5033337;28;20205;-68
2023/07/14 03:52:45;;;;;;;35.23;6.57;;;27.30;48.20;;;;;;5033048;28;20656;-68
2023/07/14 03:55:12;;;;;;;33.83;6.47;;;27.30;48.20;;;;;;5047442;28;20215;-69
2023/07/14 03:57:41;;;;;;;34.07;6.30;;;27.30;48.20;;;;;;5048536;28;20243;-73
2023/07/14 04:00:14;;;;;;;27.00;6.00;;;27.30;48.20;;;;;;5048312;28;20208;-69
2023/07/14 04:02:41;;;;;;;24.73;5.57;;;27.30;48.20;;;;;;5043193;28;20329;-68
2023/07/14 04:05:09;;;;;;;32.50;6.33;;;27.30;48.20;;;;;;5035179;28;20208;-67
2023/07/14 04:07:36;;;;;;;27.73;6.00;;;27.20;48.20;;;;;;5042931;28;20208;-69
2023/07/14 04:10:04;;;;;;;35.20;6.33;;;27.30;48.30;;;;;;5033837;28;20211;-70
2023/07/14 04:12:31;;;;;;;45.37;7.43;;;27.30;48.30;;;;;;5042605;28;20196;-68
2023/07/14 04:14:59;;;;;;;34.90;6.60;;;27.20;48.20;;;;;;5035379;28;20226;-67
2023/07/14 04:17:27;;;;;;;33.90;6.87;;;27.30;48.30;;;;;;5038431;28;20204;-70
2023/07/14 04:19:54;;;;;;;54.93;8.10;;;27.20;48.20;;;;;;5043303;28;20215;-68
2023/07/14 04:22:21;;;;;;;28.77;6.07;;;27.30;48.30;;;;;;5033432;28;20204;-70
2023/07/14 04:24:48;;;;;;;35.13;6.57;;;27.20;48.20;;;;;;5031900;28;20223;-68
2023/07/14 04:27:15;;;;;;;30.43;6.57;;;27.20;48.20;;;;;;5032135;28;20189;-72
2023/07/14 04:29:43;;;;;;;26.47;5.63;;;27.20;48.20;;;;;;5044432;28;20204;-71
2023/07/14 04:32:11;;;;;;;29.17;5.73;;;27.20;48.20;;;;;;5040002;28;20649;-67
2023/07/14 04:34:38;;;;;;;37.60;6.87;;;27.20;48.20;;;;;;5031304;28;20201;-72
2023/07/14 04:37:05;;;;;;;43.53;7.13;;;27.20;48.30;;;;;;5041095;28;20832;-68
2023/07/14 04:39:32;;;;;;;25.90;5.53;;;27.20;48.30;;;;;;5031063;28;20203;-69
2023/07/14 04:41:58;;;;;;;26.03;6.13;;;27.20;48.30;;;;;;5027818;28;20212;-68
2023/07/14 04:44:25;;;;;;;46.10;7.53;;;27.20;48.30;;;;;;5039002;28;20228;-68
2023/07/14 04:46:52;;;;;;;28.80;5.88;;;27.20;48.30;;;;;;5027854;28;20430;-66
2023/07/14 04:49:20;;;;;;;31.23;6.00;;;27.10;48.60;;;;;;5037793;28;20527;-67
2023/07/14 04:51:47;;;;;;;51.30;7.73;;;27.10;48.50;;;;;;5046203;28;20204;-67
2023/07/14 04:54:14;;;;;;;53.23;8.13;;;27.20;48.50;;;;;;5044710;28;20216;-66
2023/07/14 04:56:43;;;;;;;28.43;5.90;;;27.10;48.40;;;;;;5060648;28;20282;-66
2023/07/14 04:59:10;;;;;;;33.00;6.27;;;27.20;48.40;;;;;;5054164;28;20673;-65
2023/07/14 05:01:38;;;;;;;40.93;6.73;;;27.30;48.40;;;;;;5031511;28;20196;-65
2023/07/14 05:04:05;;;;;;;24.13;5.50;;;27.20;48.90;;;;;;5030050;28;20241;-66
2023/07/14 05:06:33;;;;;;;31.33;6.53;;;27.20;48.30;;;;;;5037863;28;20201;-69
2023/07/14 05:09:00;;;;;;;22.80;5.23;;;27.30;48.40;;;;;;5034694;28;20565;-67
2023/07/14 05:11:27;;;;;;;27.53;5.60;;;27.30;48.40;;;;;;5036716;28;20212;-65
2023/07/14 05:13:54;;;;;;;25.07;5.70;;;27.30;48.40;;;;;;5050777;28;20218;-65
2023/07/14 05:16:21;;;;;;;26.33;5.67;;;27.30;48.40;;;;;;5040714;28;20209;-69
2023/07/14 05:18:48;;;;;;;28.63;6.10;;;27.20;48.30;;;;;;5027955;28;20560;-68
2023/07/14 05:21:15;;;;;;;31.80;6.43;;;27.30;48.40;;;;;;5031597;28;20201;-67
2023/07/14 05:23:43;;;;;;;16.57;4.60;;;27.20;48.30;;;;;;5031517;28;20573;-76
2023/07/14 05:26:10;;;;;;;28.87;6.10;;;27.30;48.40;;;;;;5030375;28;20200;-66
2023/07/14 05:28:37;;;;;;;34.30;6.63;;;27.20;48.30;;;;;;5031600;28;20211;-65
2023/07/14 05:31:08;;;;;;;28.00;6.17;;;27.30;48.40;;;;;;5040715;28;20405;-71
2023/07/14 05:33:35;;;;;;;29.53;5.97;;;27.30;48.40;;;;;;5042473;28;20701;-66
2023/07/14 05:36:02;;;;;;;25.47;5.73;;;27.30;48.50;;;;;;5048154;28;20230;-66
2023/07/14 05:38:30;;;;;;;52.37;8.00;;;27.30;48.40;;;;;;5042284;28;20215;-65
2023/07/14 05:40:58;;;;;;;37.23;6.57;;;27.20;48.30;;;;;;5044268;28;20199;-66
2023/07/14 05:43:27;;;;;;;25.37;5.77;;;27.20;48.30;;;;;;5037499;28;20200;-65
2023/07/14 05:45:54;;;;;;;33.47;6.43;;;27.20;48.30;;;;;;5049602;28;20266;-66
2023/07/14 05:48:21;;;;;;;52.13;8.10;;;27.30;48.40;;;;;;5035912;28;20707;-66
2023/07/14 05:50:48;;;;;;;32.60;6.70;;;27.20;48.40;;;;;;5049235;28;20200;-65
2023/07/14 05:53:17;;;;;;;45.37;7.67;;;27.20;48.40;;;;;;5047525;28;20211;-65
2023/07/14 05:55:44;;;;;;;28.93;5.90;;;27.20;48.40;;;;;;5040512;28;20208;-65
2023/07/14 05:58:12;;;;;;;23.90;5.63;;;27.20;48.40;;;;;;5044685;28;20200;-65
2023/07/14 06:00:39;;;;;;;36.87;7.13;;;27.20;48.40;;;;;;5041849;28;20223;-65
2023/07/14 06:03:07;;;;;;;29.77;6.20;;;27.20;48.40;;;;;;5050219;28;20324;-65
2023/07/14 06:05:34;;;;;;;41.70;7.43;;;27.20;48.40;;;;;;5047798;28;20573;-66
2023/07/14 06:08:01;;;;;;;28.13;6.20;;;27.20;48.40;;;;;;5038147;28;20203;-64
2023/07/14 06:10:28;;;;;;;31.97;6.27;;;27.20;48.40;;;;;;5046000;28;20204;-66
2023/07/14 06:12:55;;;;;;;29.97;6.23;;;27.20;48.50;;;;;;5046169;28;20214;-69
2023/07/14 06:15:23;;;;;;;28.03;6.27;;;27.20;48.50;;;;;;5045557;28;20209;-66
2023/07/14 06:17:50;;;;;;;34.27;6.83;;;27.20;48.50;;;;;;5038578;28;20200;-66
2023/07/14 06:20:17;;;;;;;49.17;8.13;;;27.20;48.50;;;;;;5033610;28;20208;-67
2023/07/14 06:22:44;;;;;;;62.40;8.87;;;27.20;48.50;;;;;;5041207;28;20676;-65
2023/07/14 06:25:12;;;;;;;25.00;5.97;;;27.20;48.50;;;;;;5030163;28;20221;-65
2023/07/14 06:27:39;;;;;;;32.73;6.50;;;27.20;48.50;;;;;;5052036;28;20204;-65
2023/07/14 06:30:08;;;;;;;38.60;6.70;;;27.20;48.50;;;;;;5046950;28;20569;-65
2023/07/14 06:32:38;;;;;;;28.33;5.63;;;27.20;48.50;;;;;;5038164;28;20201;-66
2023/07/14 06:35:06;;;;;;;37.20;6.73;;;27.20;48.50;;;;;;5037159;28;20748;-65
2023/07/14 06:37:33;;;;;;;29.70;6.23;;;27.20;48.50;;;;;;5044391;28;20223;-65
2023/07/14 06:40:00;;;;;;;62.57;9.00;;;27.20;48.50;;;;;;5045417;28;20204;-65
2023/07/14 06:42:27;;;;;;;28.43;6.00;;;27.20;48.50;;;;;;5030194;28;20208;-65
2023/07/14 06:44:53;;;;;;;34.37;6.57;;;27.20;48.60;;;;;;5045236;28;20230;-74
2023/07/14 06:47:20;;;;;;;30.87;6.63;;;27.20;48.60;;;;;;5035672;28;20216;-68
2023/07/14 06:49:49;;;;;;;38.27;6.57;;;27.20;48.60;;;;;;5029504;28;20208;-70
2023/07/14 06:52:16;;;;;;;27.77;6.23;;;27.20;48.60;;;;;;5030027;28;20232;-65
2023/07/14 06:54:45;;;;;;;29.53;5.87;;;27.20;48.60;;;;;;5041828;28;20200;-65
2023/07/14 06:57:12;;;;;;;37.83;6.77;;;27.20;48.60;;;;;;5047247;28;20196;-65
2023/07/14 06:59:39;;;;;;;50.90;8.07;;;27.20;48.60;;;;;;5041227;28;20205;-65
2023/07/14 07:02:11;;;;;;;26.87;5.87;;;27.20;48.60;;;;;;5034635;28;20205;-72
2023/07/14 07:04:38;;;;;;;30.53;6.10;;;27.30;48.60;;;;;;5045446;28;20239;-65
2023/07/14 07:07:06;;;;;;;33.97;6.50;;;27.30;48.60;;;;;;5048891;28;20200;-65
2023/07/14 07:09:33;;;;;;;23.17;5.60;;;27.30;48.60;;;;;;5036823;28;20204;-66
2023/07/14 07:12:00;;;;;;;28.73;5.93;;;27.30;48.60;;;;;;5045323;28;20200;-65
2023/07/14 07:14:28;;;;;;;30.93;6.07;;;27.30;48.70;;;;;;5030942;28;20213;-65
2023/07/14 07:16:54;;;;;;;29.80;6.27;;;27.30;48.70;;;;;;5030387;28;20208;-65
2023/07/14 07:19:21;;;;;;;34.23;6.43;;;27.30;48.60;;;;;;5035486;28;20200;-66
2023/07/14 07:21:48;;;;;;;29.37;5.80;;;27.30;48.70;;;;;;5042877;28;20197;-66
2023/07/14 07:24:17;;;;;;;32.77;6.60;;;27.30;48.70;;;;;;5033455;28;20228;-65
2023/07/14 07:26:44;;;;;;;24.97;5.90;;;27.40;48.70;;;;;;5047419;28;20258;-66
2023/07/14 07:29:11;;;;;;;32.63;6.30;;;27.40;48.70;;;;;;5048340;28;20210;-67
2023/07/14 07:31:37;;;;;;;29.40;6.80;;;27.30;48.70;;;;;;5038958;28;20212;-65
2023/07/14 07:34:05;;;;;;;36.27;6.73;;;27.40;48.70;;;;;;5040399;28;20207;-66
2023/07/14 07:36:32;;;;;;;28.87;6.00;;;27.40;48.70;;;;;;5049083;28;20239;-66
2023/07/14 07:39:02;;;;;;;33.07;6.67;;;27.40;48.70;;;;;;5041247;28;20560;-65
2023/07/14 07:41:30;;;;;;;27.40;6.47;;;27.40;48.70;;;;;;5052609;28;20250;-65
2023/07/14 07:43:57;;;;;;;36.83;7.00;;;27.50;48.80;;;;;;5048160;28;20204;-67
2023/07/14 07:46:27;;;;;;;29.63;6.07;;;27.50;48.80;;;;;;5049516;28;20240;-69
2023/07/14 07:48:54;;;;;;;30.93;6.10;;;27.50;48.80;;;;;;5044236;28;20222;-66
2023/07/14 07:51:21;;;;;;;27.97;6.30;;;27.50;48.80;;;;;;5046671;28;20211;-66
2023/07/14 07:53:48;;;;;;;26.37;5.87;;;27.50;48.80;;;;;;5055601;28;20206;-67
2023/07/14 07:56:15;;;;;;;32.90;6.53;;;27.50;48.80;;;;;;5032585;28;20196;-65
2023/07/14 07:58:43;;;;;;;35.83;6.97;;;27.50;48.80;;;;;;5060429;28;20196;-67
2023/07/14 08:01:18;;;;;;;31.63;5.97;;;27.60;48.80;;;;;;5068880;28;20668;-65
2023/07/14 08:03:45;;;;;;;27.73;6.20;;;27.60;48.80;;;;;;5055733;28;20208;-67
2023/07/14 08:06:12;;;;;;;26.80;6.10;;;27.60;48.80;;;;;;5028864;28;20232;-65
2023/07/14 08:08:39;;;;;;;29.50;5.93;;;27.60;48.70;;;;;;5037563;28;20201;-66
2023/07/14 08:11:09;;;;;;;28.90;6.10;;;27.60;48.70;;;;;;5066819;28;20648;-66
2023/07/14 08:13:36;;;;;;;29.20;5.93;;;27.70;48.80;;;;;;5068428;28;20632;-65
2023/07/14 08:16:05;;;;;;;30.73;6.50;;;27.70;48.70;;;;;;5068693;28;20211;-65
2023/07/14 08:18:32;;;;;;;32.80;6.40;;;27.70;48.70;;;;;;5055833;28;20669;-67
2023/07/14 08:21:01;;;;;;;26.23;5.93;;;27.70;48.70;;;;;;5028670;28;20660;-69
2023/07/14 08:23:28;;;;;;;30.03;6.03;;;27.70;48.70;;;;;;5038128;28;20204;-66
2023/07/14 08:25:56;;;;;;;36.27;6.47;;;27.70;48.70;;;;;;5033771;28;20235;-67
2023/07/14 08:28:23;;;;;;;30.00;6.33;;;27.70;48.70;;;;;;5046665;28;20201;-72
2023/07/14 08:30:51;;;;;;;38.83;6.93;;;27.70;48.70;;;;;;5031954;28;20208;-76
2023/07/14 08:33:21;;;;;;;25.80;5.83;;;27.70;48.70;;;;;;5028366;28;20204;-66
2023/07/14 08:35:50;;;;;;;28.63;5.83;;;27.70;48.60;;;;;;5041350;28;20636;-74
2023/07/14 08:38:16;;;;;;;23.87;5.67;;;27.70;48.60;;;;;;5043943;28;20683;-73
2023/07/14 08:40:49;;;;;;;28.33;6.30;;;27.70;48.70;;;;;;5036628;28;20197;-65
2023/07/14 08:43:27;;;;;;;31.00;6.40;;;27.70;48.60;;;;;;5032335;28;20200;-65
2023/07/14 08:45:59;;;;;;;31.77;6.13;;;27.70;48.70;;;;;;5036159;28;20221;-68
2023/07/14 08:48:37;;;;;;;27.83;6.27;;;27.70;48.60;;;;;;5038770;28;20195;-69
2023/07/14 08:51:18;;;;;;;29.57;6.23;;;27.70;49.30;;;;;;5046030;28;20208;-65
2023/07/14 08:53:50;;;;;;;24.80;5.93;;;27.70;48.60;;;;;;5047250;28;20208;-72
2023/07/14 08:56:19;;;;;;;27.03;6.20;;;27.70;48.70;;;;;;5046074;28;20203;-65
2023/07/14 08:58:47;;;;;;;25.70;5.50;;;27.70;48.70;;;;;;5031060;28;20206;-65
2023/07/14 09:01:34;;;;;;;29.70;5.90;;;27.70;48.70;;;;;;5043630;28;20211;-78
2023/07/14 09:04:06;;;;;;;26.17;6.03;;;27.70;48.80;;;;;;5045064;28;20214;-66
2023/07/14 09:06:35;;;;;;;33.90;6.67;;;27.70;48.70;;;;;;5047619;28;20227;-77
2023/07/14 09:09:03;;;;;;;26.27;5.63;;;27.70;48.70;;;;;;5031311;28;20215;-70
2023/07/14 09:11:43;;;;;;;26.60;5.53;;;27.80;48.80;;;;;;5028719;28;20677;-65
2023/07/14 09:14:39;;;;;;;44.57;7.47;;;27.80;48.80;;;;;;5028138;28;20946;-67
2023/07/14 09:17:17;;;;;;;37.13;6.70;;;27.80;48.80;;;;;;5040060;28;20210;-73
2023/07/14 09:20:13;;;;;;;35.47;6.77;;;27.80;49.40;;;;;;5042693;28;20350;-65
2023/07/14 09:22:48;;;;;;;25.00;5.90;;;27.80;48.80;;;;;;5028639;28;21004;-65
2023/07/14 09:25:22;;;;;;;19.13;4.93;;;27.80;48.80;;;;;;5041556;28;20227;-66
2023/07/14 09:27:49;;;;;;;37.13;6.80;;;27.80;48.80;;;;;;5029496;28;20208;-73
2023/07/14 09:30:20;;;;;;;24.93;5.60;;;27.80;48.80;;;;;;5031396;28;20281;-69
2023/07/14 09:32:51;;;;;;;25.07;5.47;;;27.80;48.80;;;;;;5041492;28;20630;-65
2023/07/14 09:35:22;;;;;;;44.37;7.53;;;27.80;48.80;;;;;;5036510;28;20281;-66
2023/07/14 09:37:54;;;;;;;32.00;6.30;;;27.80;48.80;;;;;;5036393;28;20224;-64
2023/07/14 09:40:23;;;;;;;49.30;7.90;;;27.90;48.80;;;;;;5038117;28;20203;-64
2023/07/14 09:42:52;;;;;;;49.57;7.90;;;27.90;49.40;;;;;;5033069;28;20232;-65
2023/07/14 09:45:21;;;;;;;41.87;7.33;;;27.90;48.90;;;;;;5032201;28;20810;-64
2023/07/14 09:47:53;;;;;;;29.73;6.10;;;27.90;48.90;;;;;;5030760;28;20219;-65
2023/07/14 09:50:21;;;;;;;28.60;6.07;;;27.90;48.90;;;;;;5047688;28;20243;-66
2023/07/14 09:52:55;;;;;;;34.23;6.53;;;28.00;48.90;;;;;;5032027;28;20216;-69
2023/07/14 09:55:23;;;;;;;25.37;5.67;;;28.00;49.00;;;;;;5029668;28;20270;-65
2023/07/14 09:57:53;;;;;;;26.00;5.67;;;28.00;48.90;;;;;;5028534;28;20209;-66
2023/07/14 10:00:25;;;;;;;23.87;5.27;;;28.10;49.00;;;;;;5028045;28;20212;-64
2023/07/14 10:03:02;;;;;;;29.90;6.17;;;28.10;49.00;;;;;;5027747;28;20189;-65
2023/07/14 10:05:44;;;;;;;25.00;5.50;;;28.10;49.00;;;;;;5036563;28;20216;-64
2023/07/14 10:08:28;;;;;;;27.37;5.93;;;28.20;49.10;;;;;;5035912;28;20201;-64
2023/07/14 10:10:57;;;;;;;46.73;7.63;;;28.30;49.10;;;;;;5037295;28;20213;-65
2023/07/14 10:13:27;;;;;;;24.83;5.47;;;28.30;49.10;;;;;;5050117;28;20653;-66
2023/07/14 10:15:58;;;;;;;35.43;6.87;;;28.30;49.10;;;;;;5049693;28;20283;-64
2023/07/14 10:18:27;;;;;;;27.20;5.93;;;28.40;49.10;;;;;;5049580;28;20211;-64
2023/07/14 10:21:06;;;;;;;24.97;5.70;;;28.40;49.10;;;;;;5050080;28;20216;-64
2023/07/14 10:23:35;;;;;;;21.97;5.67;;;28.40;49.20;;;;;;5050402;28;20203;-65
2023/07/14 10:26:06;;;;;;;31.53;6.30;;;28.50;49.20;;;;;;5043119;28;20221;-64
2023/07/14 10:28:35;;;;;;;33.20;6.27;;;28.60;49.30;;;;;;5037198;28;20211;-65
2023/07/14 10:31:24;;;;;;;29.20;5.73;;;28.70;49.30;;;;;;5046535;28;20629;-65
2023/07/14 10:34:04;;;;;;;22.67;5.50;;;28.70;49.90;;;;;;5030689;28;20262;-65
2023/07/14 10:36:38;;;;;;;30.27;6.03;;;28.80;49.30;;;;;;5030830;28;20228;-65
2023/07/14 10:39:11;;;;;;;29.30;5.57;;;28.90;49.30;;;;;;5047563;28;20200;-72
2023/07/14 10:41:42;;;;;;;24.67;5.40;;;28.90;49.20;;;;;;5049281;28;20200;-67
2023/07/14 10:44:16;;;;;;;60.43;8.53;;;29.00;49.20;;;;;;5030030;28;20220;-66
2023/07/14 10:46:46;;;;;;;32.73;5.90;;;29.10;49.20;;;;;;5050138;28;20231;-65
2023/07/14 10:49:26;;;;;;;19.57;5.13;;;29.20;49.10;;;;;;5040218;28;20193;-64
2023/07/14 10:51:59;;;;;;;31.27;6.47;;;29.20;49.20;;;;;;5030328;28;20197;-64
2023/07/14 10:54:44;;;;;;;33.47;6.50;;;29.30;49.20;;;;;;5038569;28;20201;-65
2023/07/14 10:57:23;;;;;;;33.87;6.67;;;29.40;49.20;;;;;;5033366;28;20575;-65
2023/07/14 10:59:57;;;;;;;31.93;6.33;;;29.50;49.10;;;;;;5039584;28;20219;-65
2023/07/14 11:02:31;;;;;;;29.27;6.03;;;29.60;49.00;;;;;;5034204;28;20675;-63
2023/07/14 11:05:03;;;;;;;38.23;7.07;;;29.70;49.00;;;;;;5049523;28;20712;-72
2023/07/14 11:07:34;;;;;;;49.63;8.27;;;29.70;48.90;;;;;;5046851;28;20212;-66
2023/07/14 11:10:04;;;;;;;26.50;5.70;;;29.80;48.80;;;;;;5049167;28;20199;-62
2023/07/14 11:12:38;;;;;;;31.23;6.27;;;29.80;48.70;;;;;;5048678;28;20208;-71
2023/07/14 11:15:23;;;;;;;54.90;8.33;;;29.90;48.60;;;;;;5045262;28;20659;-65
2023/07/14 11:17:56;;;;;;;25.60;5.80;;;30.00;48.60;;;;;;5047718;28;20196;-70
2023/07/14 11:20:30;;;;;;;45.07;7.10;;;30.00;48.50;;;;;;5048886;28;20207;-71
2023/07/14 11:23:14;;;;;;;28.97;6.00;;;30.10;48.50;;;;;;5050611;28;20200;-68
2023/07/14 11:25:49;;;;;;;26.67;5.73;;;30.10;48.40;;;;;;5048103;28;20758;-66
2023/07/14 11:28:30;;;;;;;25.77;5.50;;;30.10;48.60;;;;;;5047230;28;20209;-67
2023/07/14 11:31:01;;;;;;;27.90;6.20;;;30.10;48.70;;;;;;5048341;28;20630;-65
2023/07/14 11:33:36;;;;;;;37.30;6.20;;;30.20;48.80;;;;;;5040103;28;20679;-68
2023/07/14 11:36:08;;;;;;;45.07;7.77;;;30.30;48.80;;;;;;5040236;28;20218;-70
2023/07/14 11:38:43;;;;;;;38.23;6.80;;;30.30;48.70;;;;;;5043360;28;20566;-68
2023/07/14 11:41:10;;;;;;;52.10;7.97;;;30.30;48.50;;;;;;5029013;28;20199;-68
2023/07/14 11:43:38;;;;;;;43.90;7.60;;;30.40;48.50;;;;;;5058532;28;20203;-72
2023/07/14 11:46:09;;;;;;;25.40;5.57;;;30.50;48.40;;;;;;5048514;28;20232;-73
2023/07/14 11:48:38;;;;;;;53.40;8.27;;;30.50;48.20;;;;;;5046853;28;20234;-66
2023/07/14 11:51:09;;;;;;;27.53;5.70;;;30.60;48.10;;;;;;5048383;28;20207;-70
2023/07/14 11:53:41;;;;;;;46.53;7.93;;;30.60;48.00;;;;;;5048480;28;20188;-71
2023/07/14 11:56:32;;;;;;;38.43;6.90;;;30.60;48.00;;;;;;5043738;28;20200;-71
2023/07/14 11:59:17;;;;;;;24.67;5.53;;;30.60;48.00;;;;;;5028793;28;20211;-75
2023/07/14 12:01:46;;;;;;;33.60;6.53;;;30.70;47.90;;;;;;5029772;28;20207;-78
2023/07/14 12:04:24;;;;;;;36.53;6.67;;;30.70;48.00;;;;;;5037200;28;20197;-74
2023/07/14 12:07:02;;;;;;;33.57;6.43;;;30.60;47.90;;;;;;5046609;28;20266;-67
2023/07/14 12:09:33;;;;;;;25.67;5.30;;;30.70;47.90;;;;;;5046542;28;20200;-71
2023/07/14 12:12:02;;;;;;;28.67;5.83;;;30.70;47.90;;;;;;5049620;28;20672;-67
2023/07/14 12:14:46;;;;;;;30.13;6.32;;;30.70;48.00;;;;;;5068660;28;20196;-68
2023/07/14 12:17:44;;;;;;;19.03;5.07;;;30.70;48.20;;;;;;5047464;28;20283;-66
2023/07/14 12:20:34;;;;;;;20.00;5.43;;;30.70;47.80;;;;;;5035090;28;20211;-68
2023/07/14 12:23:24;;;;;;;28.20;5.57;;;30.70;47.80;;;;;;5046628;28;20200;-65
2023/07/14 12:26:01;;;;;;;27.57;5.87;;;30.80;47.70;;;;;;5030612;28;20449;-65
2023/07/14 12:28:33;;;;;;;36.17;6.63;;;30.80;47.60;;;;;;5030569;28;20649;-65
2023/07/14 12:31:04;;;;;;;22.13;5.57;;;30.80;47.70;;;;;;5035109;28;20661;-69
2023/07/14 12:33:31;;;;;;;30.53;5.97;;;30.80;47.70;;;;;;5048527;28;20192;-69
2023/07/14 12:36:02;;;;;;;24.13;5.33;;;30.70;47.90;;;;;;5047881;28;20216;-66
2023/07/14 12:38:30;;;;;;;24.67;5.37;;;30.70;47.60;;;;;;5043790;28;20207;-66
2023/07/14 12:40:58;;;;;;;34.40;6.47;;;30.70;47.70;;;;;;5048278;28;20231;-69
2023/07/14 12:43:32;;;;;;;27.00;5.50;;;30.70;47.80;;;;;;5048751;28;20199;-67
2023/07/14 12:46:01;;;;;;;29.37;6.17;;;30.80;47.90;;;;;;5047940;28;20223;-66
2023/07/14 12:48:30;;;;;;;24.33;5.30;;;30.80;47.90;;;;;;5031818;28;20292;-69
2023/07/14 12:50:59;;;;;;;27.33;5.70;;;30.80;47.90;;;;;;5047860;28;20210;-66